Main page
METAR-TAF:

METAR-TAF

Airports :

Cranfield Airport

Cranfield, England

latitude: 52-04N, longitude: 000-37W, elevation: 111 m

Current weather observation

The report was made 14 minutes ago, at 12:50 UTC
Wind 7 kt from the West
Temperature 7°C
Humidity 66%
Pressure 1023 hPa
Visibility 10 km or more
no clouds below 1500 m and no cumulonimbus

METAR: EGTC 081250Z 28007KT CAVOK 07/01 Q1023

Time: 13:04 (13:04 UTC)

Forecast

The report was made 2 hours and 8 minutes ago, at 10:56 UTC
Forecast valid from 08 at 12 UTC to 08 at 19 UTC
Wind 7 kt from the West/Southwest
Visibility 10 km or more
Few clouds at a height of 4000 ft
Probability 30% :
Temporary
from 08 at 12 UTC to 08 at 15 UTC
Visibility: 8000 m

TAF: EGTC 081056Z 0812/0819 24007KT 9999 FEW040 PROB30 TEMPO 0812/0815 8000

Weather observations and forecasts of more than 4000 airports (METAR and TAF reports).

The available stations are represented by yellow and red dots on the map.

Hover mouse over dot to see the name of the station.

Then click to see weather observations and forecasts.

To change the map : click on the green buttons with a black cross to zoom in, on the green button with a dash to zoom out, or on the green arrows for adjacent maps.


METAR-TAF: